CheckWX is a tool to help pilots better visualize weather data.  It is not intended as a substitute for an official pre-flight weather briefing.

15:13:55 UTC

KIKW METAR
Jack Barstow Airport
Midland, Michigan, USA
Current

19 mins ago

KIKW 261455Z AUTO 00000KT 10SM CLR 20/11 A3005 RMK AO2 T01990108
Observed
May-26 @ 14:55 UTC
Visibility
10 SM
Flight Rules
VFR
Cloud Levels
  • Clear skies
Temperature
20°C / 68°F
Dewpoint
11°C / 52°F
Humidity
56%
Altimeter
30.05" Hg
Pressure
1017.62 hPa
Previous

39 mins ago

KIKW 261435Z AUTO 00000KT 10SM CLR 19/10 A3004 RMK AO2 T01920104
Observed
May-26 @ 14:35 UTC
Visibility
10 SM
Flight Rules
VFR
Cloud Levels
  • Clear skies
Temperature
19°C / 66°F
Dewpoint
10°C / 50°F
Humidity
56%
Altimeter
30.04" Hg
Pressure
1017.32 hPa
Previous

58 mins ago

KIKW 261416Z AUTO 00000KT 10SM CLR 18/10 A3004 RMK AO2 T01840102
Observed
May-26 @ 14:16 UTC
Visibility
10 SM
Flight Rules
VFR
Cloud Levels
  • Clear skies
Temperature
18°C / 64°F
Dewpoint
10°C / 50°F
Humidity
60%
Altimeter
30.04" Hg
Pressure
1017.32 hPa